Time;durP1;ratioP1;P1;durP2;ratioP2;P2;SDS_P1;SDS_P2;PMS_P1;PMS_P2;Temp;Humidity;BMP_temperature;BMP_pressure;BME280_temperature;BME280_humidity;BME280_pressure;Samples;Min_cycle;Max_cycle;Signal;HPM_P1;HPM_P2
2024/01/10 00:02:21;;;;;;;0.90;0.90;;;-6.50;99.90;;;;;;5050960;28;20593;-77
2024/01/10 00:04:47;;;;;;;1.00;1.00;;;-6.60;99.90;;;;;;5051056;28;20193;-77
2024/01/10 00:07:13;;;;;;;0.90;0.90;;;-6.50;99.90;;;;;;5033122;28;20658;-77
2024/01/10 00:09:38;;;;;;;0.93;0.93;;;-6.60;99.90;;;;;;5032778;28;20233;-77
2024/01/10 00:12:04;;;;;;;1.00;1.00;;;-6.50;99.90;;;;;;5051003;28;20316;-77
2024/01/10 00:14:30;;;;;;;1.67;1.58;;;-6.40;99.90;;;;;;5032526;28;20308;-78
2024/01/10 00:17:07;;;;;;;0.90;0.90;;;-6.40;99.90;;;;;;5032861;28;20197;-77
2024/01/10 00:19:39;;;;;;;0.90;0.90;;;-6.30;99.90;;;;;;5051170;28;20276;-77
2024/01/10 00:22:17;;;;;;;2.38;1.75;;;-6.10;99.90;;;;;;5050669;28;20194;-77
2024/01/10 00:24:45;;;;;;;0.80;0.80;;;-6.10;99.90;;;;;;5032965;28;20201;-78
2024/01/10 00:27:44;;;;;;;1.27;1.23;;;-6.20;99.90;;;;;;5033282;28;20210;-77
2024/01/10 00:30:16;;;;;;;0.80;0.80;;;-6.20;99.90;;;;;;5046647;28;20384;-76
2024/01/10 00:33:16;;;;;;;0.80;0.80;;;-6.20;99.90;;;;;;5032639;28;20265;-77
2024/01/10 00:35:44;;;;;;;0.85;0.85;;;-5.90;99.90;;;;;;5050158;28;20201;-76
2024/01/10 00:38:10;;;;;;;0.80;0.80;;;-5.90;99.90;;;;;;5050602;28;20641;-77
2024/01/10 00:40:42;;;;;;;0.80;0.80;;;-6.00;99.90;;;;;;5032660;28;20211;-77
2024/01/10 00:43:10;;;;;;;0.88;0.88;;;-6.00;99.90;;;;;;5055205;28;20196;-77
2024/01/10 00:45:36;;;;;;;1.00;1.00;;;-6.10;99.90;;;;;;5051967;28;20303;-76
2024/01/10 00:48:05;;;;;;;0.90;0.90;;;-6.20;99.90;;;;;;5052286;28;20645;-77
2024/01/10 00:50:34;;;;;;;0.80;0.80;;;-6.30;99.90;;;;;;5062199;28;20237;-76
2024/01/10 00:53:02;;;;;;;0.90;0.90;;;-6.30;99.90;;;;;;5050258;28;20197;-77
2024/01/10 00:55:31;;;;;;;0.90;0.90;;;-6.30;99.90;;;;;;5032403;28;20201;-76
2024/01/10 00:57:56;;;;;;;0.90;0.90;;;-6.40;99.90;;;;;;5050534;28;20189;-77
2024/01/10 01:00:22;;;;;;;0.83;0.83;;;-6.50;99.90;;;;;;5032184;28;20382;-77
2024/01/10 01:02:47;;;;;;;0.83;0.83;;;-6.50;99.90;;;;;;5050176;28;20190;-76
2024/01/10 01:05:13;;;;;;;0.90;0.90;;;-6.60;99.90;;;;;;5050333;28;20276;-77
2024/01/10 01:07:39;;;;;;;0.80;0.80;;;-6.60;99.90;;;;;;5050252;28;20232;-77
2024/01/10 01:10:06;;;;;;;8.57;3.30;;;-6.70;99.90;;;;;;5031596;28;20237;-77
2024/01/10 01:12:31;;;;;;;0.90;0.90;;;-6.80;99.90;;;;;;5050062;28;20776;-77
2024/01/10 01:14:57;;;;;;;0.80;0.80;;;-6.80;99.90;;;;;;5032095;28;20281;-77
2024/01/10 01:17:23;;;;;;;0.90;0.90;;;-6.80;99.90;;;;;;5049585;28;20229;-77
2024/01/10 01:19:48;;;;;;;0.90;0.90;;;-6.90;99.90;;;;;;5050215;28;20190;-77
2024/01/10 01:22:14;;;;;;;0.90;0.90;;;-6.90;99.90;;;;;;5050292;28;20225;-77
2024/01/10 01:24:40;;;;;;;1.00;1.00;;;-6.90;99.90;;;;;;5050061;28;20228;-77
2024/01/10 01:27:05;;;;;;;0.90;0.90;;;-6.80;99.90;;;;;;5050254;28;20283;-77
2024/01/10 01:29:31;;;;;;;0.90;0.90;;;-6.80;99.90;;;;;;5049798;28;20206;-77
2024/01/10 01:31:57;;;;;;;0.87;0.87;;;-6.90;99.90;;;;;;5050015;28;20209;-77
2024/01/10 01:34:22;;;;;;;0.80;0.80;;;-6.90;99.90;;;;;;5050054;28;20205;-77
2024/01/10 01:36:51;;;;;;;0.90;0.90;;;-6.90;99.90;;;;;;5050116;28;20197;-77
2024/01/10 01:39:16;;;;;;;0.80;0.80;;;-6.90;99.90;;;;;;5049785;28;20826;-77
2024/01/10 01:41:42;;;;;;;0.80;0.80;;;-6.90;99.90;;;;;;5048722;28;20204;-77
2024/01/10 01:44:07;;;;;;;0.80;0.80;;;-7.00;99.90;;;;;;5050098;28;20204;-77
2024/01/10 01:46:34;;;;;;;0.87;0.87;;;-7.00;99.90;;;;;;5049755;28;20211;-77
2024/01/10 01:49:00;;;;;;;0.80;0.80;;;-7.00;99.90;;;;;;5050053;28;20225;-76
2024/01/10 01:51:28;;;;;;;0.80;0.80;;;-6.90;99.90;;;;;;5048292;28;20868;-77
2024/01/10 01:53:55;;;;;;;0.90;0.90;;;-6.90;99.90;;;;;;5049850;28;20197;-77
2024/01/10 01:56:25;;;;;;;1.83;1.73;;;-6.90;99.90;;;;;;5049830;28;20684;-76
2024/01/10 01:58:52;;;;;;;0.90;0.90;;;-6.90;99.90;;;;;;5049802;28;20194;-77
2024/01/10 02:01:22;;;;;;;1.00;1.00;;;-6.80;99.90;;;;;;5050253;28;20194;-77
2024/01/10 02:03:48;;;;;;;1.00;1.00;;;-6.80;99.90;;;;;;5049604;28;20280;-76
2024/01/10 02:06:13;;;;;;;0.90;0.90;;;-6.90;99.90;;;;;;5050023;28;20273;-76
2024/01/10 02:08:39;;;;;;;0.80;0.80;;;-6.80;99.90;;;;;;5031400;28;20697;-77
2024/01/10 02:11:05;;;;;;;0.90;0.90;;;-6.80;99.90;;;;;;5049783;28;20384;-77
2024/01/10 02:13:34;;;;;;;0.83;0.83;;;-6.80;99.90;;;;;;5049614;28;20251;-77
2024/01/10 02:16:00;;;;;;;0.90;0.90;;;-6.70;99.90;;;;;;5049947;28;20265;-77
2024/01/10 02:18:26;;;;;;;0.90;0.90;;;-6.70;99.90;;;;;;5036203;28;20204;-78
2024/01/10 02:20:52;;;;;;;1.27;1.20;;;-6.80;99.90;;;;;;5032716;28;20189;-77
2024/01/10 02:23:17;;;;;;;0.80;0.80;;;-6.90;99.90;;;;;;5053588;28;20296;-76
2024/01/10 02:25:44;;;;;;;0.80;0.80;;;-7.00;99.90;;;;;;5053709;28;20204;-77
2024/01/10 02:28:10;;;;;;;0.90;0.90;;;-6.90;99.90;;;;;;5035228;28;20689;-77
2024/01/10 02:30:36;;;;;;;0.80;0.80;;;-6.90;99.90;;;;;;5053317;28;20233;-77
2024/01/10 02:33:02;;;;;;;1.10;1.10;;;-6.90;99.90;;;;;;5035421;28;20197;-76
2024/01/10 02:35:27;;;;;;;0.90;0.90;;;-6.90;99.90;;;;;;5056253;28;20268;-77
2024/01/10 02:37:54;;;;;;;0.83;0.83;;;-7.00;99.90;;;;;;5073480;28;20342;-77
2024/01/10 02:40:20;;;;;;;1.00;1.00;;;-7.10;99.90;;;;;;5074478;28;20223;-76
2024/01/10 02:42:46;;;;;;;0.80;0.80;;;-7.10;99.90;;;;;;5069562;28;20568;-76
2024/01/10 02:45:12;;;;;;;0.87;0.87;;;-7.20;99.90;;;;;;5054915;28;20194;-76
2024/01/10 02:47:38;;;;;;;0.90;0.90;;;-7.30;99.90;;;;;;5038127;28;20193;-76
2024/01/10 02:50:05;;;;;;;0.90;0.90;;;-7.40;99.90;;;;;;5057986;28;20196;-76
2024/01/10 02:52:30;;;;;;;0.90;0.90;;;-7.50;99.90;;;;;;5054651;28;20769;-77
2024/01/10 02:54:56;;;;;;;0.83;0.83;;;-7.50;99.90;;;;;;5037921;28;20202;-77
2024/01/10 02:57:22;;;;;;;3.53;2.60;;;-7.50;99.90;;;;;;5056169;28;20220;-77
2024/01/10 02:59:47;;;;;;;0.80;0.80;;;-7.50;99.90;;;;;;5075766;28;20261;-78
2024/01/10 03:02:13;;;;;;;0.90;0.90;;;-7.40;99.90;;;;;;5075812;28;20181;-77
2024/01/10 03:04:39;;;;;;;0.90;0.90;;;-7.30;99.90;;;;;;5058851;28;20288;-77
2024/01/10 03:07:05;;;;;;;0.80;0.80;;;-7.10;99.90;;;;;;5053732;28;20687;-77
2024/01/10 03:09:31;;;;;;;0.87;0.87;;;-7.00;99.90;;;;;;5052912;28;20222;-77
2024/01/10 03:11:57;;;;;;;0.90;0.90;;;-6.90;99.90;;;;;;5052842;28;20205;-77
2024/01/10 03:14:22;;;;;;;0.90;0.90;;;-6.80;99.90;;;;;;5052428;28;20221;-77
2024/01/10 03:16:48;;;;;;;0.90;0.90;;;-6.80;99.90;;;;;;5052449;28;20223;-77
2024/01/10 03:19:15;;;;;;;0.90;0.90;;;-6.80;99.90;;;;;;5052357;28;20600;-77
2024/01/10 03:21:40;;;;;;;0.90;0.90;;;-6.90;99.90;;;;;;5052102;28;20206;-76
2024/01/10 03:24:06;;;;;;;0.80;0.80;;;-7.00;99.90;;;;;;5052271;28;20202;-77
2024/01/10 03:26:32;;;;;;;0.90;0.90;;;-7.00;99.90;;;;;;5052155;28;20424;-77
2024/01/10 03:28:58;;;;;;;0.90;0.90;;;-7.10;99.90;;;;;;5052724;28;20195;-78
2024/01/10 03:31:24;;;;;;;0.90;0.90;;;-7.20;99.90;;;;;;5051935;28;20201;-78
2024/01/10 03:33:50;;;;;;;0.80;0.80;;;-7.30;99.90;;;;;;5051974;28;20236;-78
2024/01/10 03:36:17;;;;;;;1.23;1.20;;;-7.40;99.90;;;;;;5050756;28;20251;-79
2024/01/10 03:38:43;;;;;;;0.87;0.87;;;-7.50;99.90;;;;;;5052204;28;20193;-79
2024/01/10 03:41:16;;;;;;;1.37;1.30;;;-7.50;99.90;;;;;;5051929;28;20201;-78
2024/01/10 03:43:42;;;;;;;0.87;0.87;;;-7.60;99.90;;;;;;5052584;28;20694;-79
2024/01/10 03:46:09;;;;;;;0.90;0.90;;;-7.60;99.90;;;;;;5033981;28;20297;-79
2024/01/10 03:48:34;;;;;;;0.90;0.90;;;-7.60;99.90;;;;;;5033941;28;20208;-79
2024/01/10 03:51:00;;;;;;;0.83;0.83;;;-7.50;99.90;;;;;;5034121;28;20209;-79
2024/01/10 03:53:26;;;;;;;0.80;0.80;;;-7.40;99.90;;;;;;5051960;28;20189;-79
2024/01/10 03:55:52;;;;;;;0.97;0.97;;;-7.40;99.90;;;;;;5052078;28;20193;-79
2024/01/10 03:58:17;;;;;;;1.00;1.00;;;-7.40;99.90;;;;;;5051888;28;20630;-78
2024/01/10 04:00:43;;;;;;;1.00;1.00;;;-7.40;99.90;;;;;;5051726;28;20603;-79
2024/01/10 04:03:09;;;;;;;0.80;0.80;;;-7.30;99.90;;;;;;5044893;28;20272;-80
2024/01/10 04:05:34;;;;;;;0.80;0.80;;;-7.20;99.90;;;;;;5030255;28;20197;-79
2024/01/10 04:08:00;;;;;;;0.90;0.90;;;-7.20;99.90;;;;;;5030725;28;20210;-79
2024/01/10 04:10:26;;;;;;;0.90;0.90;;;-7.20;99.90;;;;;;5030690;28;20626;-80
2024/01/10 04:12:51;;;;;;;0.90;0.90;;;-7.10;99.90;;;;;;5060249;28;20657;-78
2024/01/10 04:15:20;;;;;;;1.27;1.17;;;-7.00;99.90;;;;;;5053523;28;20634;-79
2024/01/10 04:17:45;;;;;;;0.87;0.87;;;-6.90;99.90;;;;;;5071525;28;20196;-79
2024/01/10 04:20:11;;;;;;;0.87;0.87;;;-6.80;99.90;;;;;;5071143;28;20585;-80
2024/01/10 04:22:37;;;;;;;0.87;0.87;;;-6.80;99.90;;;;;;5071013;28;20284;-80
2024/01/10 04:25:07;;;;;;;0.90;0.90;;;-6.90;99.90;;;;;;5071526;28;20458;-80
2024/01/10 04:27:33;;;;;;;0.90;0.90;;;-7.00;99.90;;;;;;5063078;28;20228;-79
2024/01/10 04:29:59;;;;;;;0.80;0.80;;;-7.10;99.90;;;;;;5033099;28;20232;-80
2024/01/10 04:32:24;;;;;;;0.80;0.80;;;-7.00;99.90;;;;;;5051200;28;20296;-79
2024/01/10 04:34:50;;;;;;;0.90;0.90;;;-7.00;99.90;;;;;;5051035;28;20193;-78
2024/01/10 04:37:19;;;;;;;0.80;0.80;;;-7.10;99.90;;;;;;5051174;28;20190;-77
2024/01/10 04:39:44;;;;;;;0.90;0.90;;;-7.10;99.90;;;;;;5050666;28;20225;-76
2024/01/10 04:42:13;;;;;;;0.90;0.90;;;-7.10;99.90;;;;;;5050520;28;20232;-75
2024/01/10 04:44:38;;;;;;;0.90;0.90;;;-7.10;99.90;;;;;;5031580;28;20711;-75
2024/01/10 04:47:05;;;;;;;0.90;0.90;;;-7.10;99.90;;;;;;5032582;28;20210;-75
2024/01/10 04:49:31;;;;;;;0.90;0.90;;;-7.10;99.90;;;;;;5050245;28;20579;-75
2024/01/10 04:51:56;;;;;;;4.30;3.17;;;-7.10;99.90;;;;;;5032574;28;20308;-75
2024/01/10 04:54:22;;;;;;;0.80;0.80;;;-7.10;99.90;;;;;;5050214;28;20232;-76
2024/01/10 04:56:47;;;;;;;1.00;1.00;;;-7.00;99.90;;;;;;5050410;28;20197;-76
2024/01/10 04:59:13;;;;;;;0.87;0.87;;;-6.90;99.90;;;;;;5050436;28;20189;-77
2024/01/10 05:01:39;;;;;;;0.87;0.87;;;-7.00;99.90;;;;;;5050595;28;20201;-76
2024/01/10 05:04:05;;;;;;;0.80;0.80;;;-7.10;99.90;;;;;;5032522;28;20236;-76
2024/01/10 05:06:30;;;;;;;0.80;0.80;;;-7.10;99.90;;;;;;5031931;28;20201;-76
2024/01/10 05:08:58;;;;;;;0.97;0.97;;;-7.10;99.90;;;;;;5049586;28;20237;-76
2024/01/10 05:11:28;;;;;;;0.90;0.90;;;-7.20;99.90;;;;;;5049868;28;20347;-76
2024/01/10 05:13:54;;;;;;;0.90;0.90;;;-7.20;99.90;;;;;;5048942;28;20731;-76
2024/01/10 05:16:19;;;;;;;0.80;0.80;;;-7.10;99.90;;;;;;5049877;28;20193;-76
2024/01/10 05:18:46;;;;;;;0.80;0.80;;;-6.90;99.90;;;;;;5050267;28;20275;-75
2024/01/10 05:21:12;;;;;;;0.80;0.80;;;-6.70;99.90;;;;;;5050183;28;20220;-76
2024/01/10 05:23:39;;;;;;;0.90;0.90;;;-6.60;99.90;;;;;;5050701;28;21059;-76
2024/01/10 05:26:05;;;;;;;1.00;1.00;;;-6.60;99.90;;;;;;5052832;28;20197;-76
2024/01/10 05:28:30;;;;;;;0.77;0.77;;;-6.70;99.90;;;;;;5052792;28;20254;-76
2024/01/10 05:30:57;;;;;;;0.80;0.80;;;-6.70;99.90;;;;;;5050184;28;20209;-76
2024/01/10 05:33:23;;;;;;;0.90;0.90;;;-6.60;99.90;;;;;;5049700;28;20212;-77
2024/01/10 05:35:48;;;;;;;0.90;0.90;;;-6.60;99.90;;;;;;5050139;28;20197;-76
2024/01/10 05:38:14;;;;;;;0.90;0.90;;;-6.70;99.90;;;;;;5050101;28;20546;-76
2024/01/10 05:40:40;;;;;;;0.80;0.80;;;-6.60;99.90;;;;;;5049803;28;20197;-76
2024/01/10 05:43:06;;;;;;;0.90;0.90;;;-6.60;99.90;;;;;;5050243;28;20194;-76
2024/01/10 05:45:33;;;;;;;0.90;0.90;;;-6.50;99.90;;;;;;5050060;28;20681;-76
2024/01/10 05:47:59;;;;;;;0.80;0.80;;;-6.50;99.90;;;;;;5050227;28;20193;-76
2024/01/10 05:50:24;;;;;;;0.90;0.90;;;-6.40;99.90;;;;;;5049737;28;20217;-76
2024/01/10 05:52:50;;;;;;;0.90;0.90;;;-6.40;99.90;;;;;;5049819;28;20533;-76
2024/01/10 05:55:16;;;;;;;0.90;0.90;;;-6.50;99.90;;;;;;5049861;28;20700;-75
2024/01/10 05:57:42;;;;;;;0.83;0.83;;;-6.70;99.90;;;;;;5035396;28;20197;-77
2024/01/10 06:00:11;;;;;;;0.80;0.80;;;-6.80;99.90;;;;;;5053918;28;20263;-76
2024/01/10 06:02:40;;;;;;;0.80;0.80;;;-6.90;99.90;;;;;;5053295;28;20193;-76
2024/01/10 06:05:07;;;;;;;0.90;0.90;;;-6.90;99.90;;;;;;5053344;28;20204;-76
2024/01/10 06:07:32;;;;;;;0.82;0.82;;;-6.90;99.90;;;;;;5053671;28;20304;-76
2024/01/10 06:09:58;;;;;;;0.90;0.90;;;-7.00;99.90;;;;;;5053539;28;20678;-76
2024/01/10 06:12:25;;;;;;;0.90;0.90;;;-7.20;99.90;;;;;;5053511;28;20542;-76
2024/01/10 06:14:51;;;;;;;0.87;0.87;;;-7.40;99.90;;;;;;5053818;28;20216;-76
2024/01/10 06:17:16;;;;;;;0.98;0.98;;;-7.50;99.90;;;;;;5052405;28;20201;-76
2024/01/10 06:19:42;;;;;;;1.20;1.20;;;-7.60;99.90;;;;;;5054124;28;20190;-75
2024/01/10 06:22:08;;;;;;;0.87;0.87;;;-7.60;99.90;;;;;;5035684;28;20292;-78
2024/01/10 06:24:33;;;;;;;2.13;1.97;;;-7.60;99.90;;;;;;5053552;28;20193;-76
2024/01/10 06:26:59;;;;;;;0.90;0.90;;;-7.70;99.90;;;;;;5053412;28;20198;-76
2024/01/10 06:29:25;;;;;;;1.00;1.00;;;-7.60;99.90;;;;;;5034997;28;20627;-76
2024/01/10 06:31:50;;;;;;;1.00;1.00;;;-7.50;99.90;;;;;;5055405;28;20302;-76
2024/01/10 06:34:16;;;;;;;1.10;1.10;;;-7.30;99.90;;;;;;5054162;28;20283;-76
2024/01/10 06:36:42;;;;;;;0.80;0.80;;;-7.40;99.90;;;;;;5037510;28;20545;-76
2024/01/10 06:39:12;;;;;;;0.90;0.90;;;-7.50;99.90;;;;;;5037497;28;20197;-77
2024/01/10 06:41:38;;;;;;;28.17;4.87;;;-7.60;99.90;;;;;;5052934;28;20193;-76
2024/01/10 06:44:04;;;;;;;0.80;0.80;;;-7.60;99.90;;;;;;5053012;28;20638;-76
2024/01/10 06:46:30;;;;;;;0.90;0.90;;;-7.60;99.90;;;;;;5052864;28;20654;-76
2024/01/10 06:48:56;;;;;;;0.80;0.80;;;-7.40;99.90;;;;;;5052977;28;20208;-77
2024/01/10 06:51:21;;;;;;;1.10;1.00;;;-7.40;99.90;;;;;;5052548;28;20197;-76
2024/01/10 06:53:47;;;;;;;0.80;0.80;;;-7.40;99.90;;;;;;5052754;28;20190;-77
2024/01/10 06:56:13;;;;;;;0.90;0.90;;;-7.40;99.90;;;;;;5035106;28;20192;-77
2024/01/10 06:58:39;;;;;;;0.90;0.90;;;-7.50;99.90;;;;;;5052683;28;20279;-77
2024/01/10 07:01:12;;;;;;;1.20;1.20;;;-7.60;99.90;;;;;;5052722;28;20197;-77
2024/01/10 07:03:38;;;;;;;0.90;0.90;;;-7.60;99.90;;;;;;5052223;28;20211;-77
2024/01/10 07:06:04;;;;;;;0.90;0.90;;;-7.60;99.90;;;;;;5052637;28;20633;-77
2024/01/10 07:08:30;;;;;;;0.80;0.80;;;-7.60;99.90;;;;;;5033566;28;20236;-76
2024/01/10 07:10:56;;;;;;;0.90;0.90;;;-7.60;99.90;;;;;;5052233;28;20197;-77
2024/01/10 07:13:23;;;;;;;0.87;0.87;;;-7.70;99.90;;;;;;5052349;28;20190;-77
2024/01/10 07:15:50;;;;;;;0.80;0.80;;;-7.70;99.90;;;;;;5052363;28;20204;-76
2024/01/10 07:18:16;;;;;;;0.77;0.77;;;-7.80;99.90;;;;;;5034678;28;20243;-77
2024/01/10 07:20:42;;;;;;;5.23;1.47;;;-7.80;99.90;;;;;;5052184;28;20687;-76
2024/01/10 07:23:08;;;;;;;0.90;0.90;;;-7.80;99.90;;;;;;5034236;28;20193;-76
2024/01/10 07:25:33;;;;;;;1.13;1.13;;;-7.80;99.90;;;;;;5052141;28;20192;-77
2024/01/10 07:27:59;;;;;;;0.87;0.87;;;-7.80;99.90;;;;;;5052235;28;20204;-77
2024/01/10 07:30:26;;;;;;;0.83;0.83;;;-7.90;99.90;;;;;;5051682;28;20221;-77
2024/01/10 07:32:52;;;;;;;0.80;0.80;;;-8.00;99.90;;;;;;5052308;28;20197;-77
2024/01/10 07:35:17;;;;;;;0.87;0.87;;;-8.00;99.90;;;;;;5052203;28;20193;-76
2024/01/10 07:37:44;;;;;;;0.80;0.80;;;-8.00;99.90;;;;;;5034036;28;20193;-76
2024/01/10 07:40:13;;;;;;;0.80;0.80;;;-8.00;99.90;;;;;;5051854;28;20189;-76
2024/01/10 07:42:39;;;;;;;0.93;0.93;;;-7.90;99.90;;;;;;5052008;28;21179;-76
2024/01/10 07:45:06;;;;;;;0.80;0.80;;;-8.00;99.90;;;;;;5052627;28;20185;-76
2024/01/10 07:47:34;;;;;;;0.80;0.80;;;-8.00;99.90;;;;;;5051308;28;20205;-77
2024/01/10 07:49:59;;;;;;;0.80;0.80;;;-8.10;99.90;;;;;;5052813;28;20270;-77
2024/01/10 07:52:25;;;;;;;0.70;0.70;;;-8.10;99.90;;;;;;5052836;28;20233;-77
2024/01/10 07:54:51;;;;;;;0.80;0.80;;;-8.10;99.90;;;;;;5052905;28;20182;-77
2024/01/10 07:57:18;;;;;;;0.87;0.87;;;-8.00;99.90;;;;;;5052766;28;20247;-77
2024/01/10 07:59:45;;;;;;;1.00;1.00;;;-7.90;99.90;;;;;;5069478;28;20186;-77
2024/01/10 08:02:11;;;;;;;0.80;0.80;;;-7.80;99.90;;;;;;5073791;28;20182;-78
2024/01/10 08:04:37;;;;;;;0.90;0.90;;;-7.80;99.90;;;;;;5072558;28;20197;-77
2024/01/10 08:07:03;;;;;;;1.00;1.00;;;-7.80;99.90;;;;;;5062208;28;20193;-77
2024/01/10 08:09:29;;;;;;;0.90;0.90;;;-7.80;99.90;;;;;;5051605;28;20264;-76
2024/01/10 08:11:54;;;;;;;0.90;0.90;;;-7.80;99.90;;;;;;5051564;28;20213;-75
2024/01/10 08:14:20;;;;;;;0.80;0.80;;;-7.80;99.90;;;;;;5051282;28;20651;-75
2024/01/10 08:16:46;;;;;;;1.00;1.00;;;-7.70;99.90;;;;;;5051573;28;20205;-76
2024/01/10 08:19:12;;;;;;;0.90;0.90;;;-7.70;99.90;;;;;;5051549;28;20588;-76
2024/01/10 19:04:16;;;;;;;0.80;0.80;;;-2.70;99.90;;;;;;5052194;28;20216;-77
2024/01/10 19:06:42;;;;;;;0.80;0.80;;;-2.70;99.90;;;;;;5052835;28;20247;-77
2024/01/10 19:09:08;;;;;;;0.80;0.80;;;-2.70;99.90;;;;;;5052920;28;20744;-77
2024/01/10 19:11:33;;;;;;;0.90;0.90;;;-2.80;99.90;;;;;;5054540;28;20696;-76
2024/01/10 19:13:59;;;;;;;0.88;0.88;;;-2.80;99.90;;;;;;5054271;28;20272;-76
2024/01/10 19:16:25;;;;;;;0.70;0.70;;;-2.80;99.90;;;;;;5072849;28;20225;-76
2024/01/10 19:18:50;;;;;;;0.70;0.70;;;-2.80;99.90;;;;;;5072216;28;20193;-77
2024/01/10 19:21:16;;;;;;;0.73;0.73;;;-2.80;99.90;;;;;;5072968;28;20262;-77
2024/01/10 19:23:45;;;;;;;0.70;0.70;;;-2.80;99.90;;;;;;5072611;28;20611;-76
2024/01/10 19:26:23;;;;;;;3.67;2.90;;;-2.80;99.90;;;;;;5072713;28;20692;-77
2024/01/10 19:28:50;;;;;;;1.02;1.02;;;-2.90;99.90;;;;;;5054227;28;20193;-77
2024/01/10 19:31:15;;;;;;;0.98;0.98;;;-3.00;99.90;;;;;;5034399;28;20297;-77
2024/01/10 19:33:41;;;;;;;0.98;0.98;;;-3.10;99.90;;;;;;5052460;28;20614;-77
2024/01/10 19:36:07;;;;;;;1.10;1.10;;;-3.10;99.90;;;;;;5052886;28;20240;-76
2024/01/10 19:38:33;;;;;;;0.70;0.70;;;-3.10;99.90;;;;;;5035339;28;20665;-76
2024/01/10 19:40:58;;;;;;;1.00;1.00;;;-3.00;99.90;;;;;;5052624;28;20235;-77
2024/01/10 19:43:26;;;;;;;0.90;0.90;;;-2.80;99.90;;;;;;5051808;28;20186;-77
2024/01/10 19:45:51;;;;;;;0.75;0.75;;;-2.60;99.90;;;;;;5052464;28;20196;-77
2024/01/10 19:48:18;;;;;;;0.70;0.70;;;-2.50;99.90;;;;;;5034213;28;20720;-77
2024/01/10 19:50:44;;;;;;;0.80;0.80;;;-2.40;99.90;;;;;;5034211;28;20216;-76
2024/01/10 19:53:10;;;;;;;0.80;0.80;;;-2.40;99.90;;;;;;5051772;28;20758;-76
2024/01/10 19:55:36;;;;;;;0.75;0.75;;;-2.30;99.90;;;;;;5051745;28;20750;-75
2024/01/10 19:58:01;;;;;;;0.70;0.70;;;-2.30;99.90;;;;;;5051979;28;20769;-75
2024/01/10 20:00:27;;;;;;;0.70;0.70;;;-2.20;99.90;;;;;;5051568;28;20191;-74
2024/01/10 20:02:54;;;;;;;0.80;0.80;;;-2.30;99.90;;;;;;5052541;28;20196;-74
2024/01/10 20:05:20;;;;;;;0.73;0.73;;;-2.30;99.90;;;;;;5051916;28;20189;-74
2024/01/10 20:07:46;;;;;;;0.77;0.77;;;-2.20;99.90;;;;;;5051313;28;20288;-74
2024/01/10 20:10:12;;;;;;;0.73;0.73;;;-2.20;99.90;;;;;;5051297;28;20221;-74
2024/01/10 20:12:37;;;;;;;0.75;0.75;;;-2.10;99.90;;;;;;5051321;28;20213;-73
2024/01/10 20:15:03;;;;;;;0.70;0.70;;;-1.80;99.90;;;;;;5051095;28;20221;-73
2024/01/10 20:17:29;;;;;;;0.77;0.77;;;-1.60;99.90;;;;;;5051119;28;20193;-74
2024/01/10 20:19:54;;;;;;;0.80;0.80;;;-1.50;99.90;;;;;;5051311;28;20268;-74
2024/01/10 20:22:20;;;;;;;1.17;1.17;;;-1.40;99.90;;;;;;5032933;28;20225;-74
2024/01/10 20:24:46;;;;;;;0.77;0.77;;;-1.40;99.90;;;;;;5066680;28;20280;-74
2024/01/10 20:27:11;;;;;;;0.75;0.75;;;-1.50;99.90;;;;;;5055154;28;20193;-74
2024/01/10 20:29:37;;;;;;;0.80;0.80;;;-1.50;99.90;;;;;;5032952;28;20255;-73
2024/01/10 20:32:06;;;;;;;0.70;0.70;;;-1.50;99.90;;;;;;5050731;28;20546;-74
2024/01/10 20:34:32;;;;;;;0.70;0.70;;;-1.40;99.90;;;;;;5050679;28;20182;-74
2024/01/10 20:36:57;;;;;;;1.42;1.13;;;-1.20;99.90;;;;;;5032655;28;20672;-75
2024/01/10 20:39:23;;;;;;;0.90;0.90;;;-0.90;99.90;;;;;;5032665;28;20306;-73
2024/01/10 20:41:49;;;;;;;0.70;0.70;;;-0.80;99.90;;;;;;5050643;28;20189;-73
2024/01/10 20:44:14;;;;;;;1.67;1.58;;;-0.80;99.90;;;;;;5032752;28;20287;-75
2024/01/10 20:46:40;;;;;;;0.90;0.90;;;-0.60;99.90;;;;;;5050563;28;20534;-74
2024/01/10 20:49:06;;;;;;;0.80;0.80;;;-0.20;99.90;;;;;;5050782;28;20197;-74
2024/01/10 20:51:31;;;;;;;1.08;1.00;;;-0.10;99.90;;;;;;5050106;28;20201;-74
2024/01/10 20:53:57;;;;;;;0.70;0.70;;;-0.20;99.90;;;;;;5050745;28;20224;-74
2024/01/10 20:56:23;;;;;;;0.80;0.80;;;-0.20;99.90;;;;;;5050492;28;20584;-74
2024/01/10 20:58:48;;;;;;;0.70;0.70;;;-0.20;99.90;;;;;;5050634;28;20550;-77
2024/01/10 21:01:14;;;;;;;0.80;0.80;;;-0.20;99.90;;;;;;5050459;28;20186;-77
2024/01/10 21:03:39;;;;;;;0.70;0.70;;;-0.20;99.90;;;;;;5032329;28;20202;-77
2024/01/10 21:06:05;;;;;;;0.70;0.70;;;-0.30;99.90;;;;;;5050227;28;20201;-76
2024/01/10 21:08:31;;;;;;;0.68;0.68;;;-0.30;99.90;;;;;;5049885;28;20260;-77
2024/01/10 21:10:57;;;;;;;0.70;0.70;;;-0.30;99.90;;;;;;5050243;28;20196;-77
2024/01/10 21:13:23;;;;;;;0.73;0.73;;;-0.30;99.90;;;;;;5048810;28;20752;-77
2024/01/10 21:15:49;;;;;;;0.60;0.60;;;-0.30;99.90;;;;;;5048941;28;20274;-77
2024/01/10 21:18:14;;;;;;;0.60;0.60;;;-0.10;99.90;;;;;;5049089;28;20276;-78
2024/01/10 21:20:40;;;;;;;0.60;0.60;;;-0.10;99.90;;;;;;5039013;28;20244;-78
2024/01/10 21:23:06;;;;;;;0.65;0.65;;;-0.10;99.90;;;;;;5050759;28;20201;-78
2024/01/10 21:25:31;;;;;;;0.50;0.50;;;-0.30;99.90;;;;;;5050018;28;20276;-77
2024/01/10 21:27:57;;;;;;;0.70;0.70;;;-0.40;99.90;;;;;;5049700;28;20846;-78
2024/01/10 21:30:22;;;;;;;0.68;0.68;;;-0.40;99.90;;;;;;5031846;28;20679;-77
2024/01/10 21:32:48;;;;;;;0.70;0.70;;;-0.40;99.90;;;;;;5050260;28;20205;-78
2024/01/10 21:35:14;;;;;;;0.80;0.80;;;-0.50;99.90;;;;;;5032355;28;20654;-77
2024/01/10 21:37:40;;;;;;;0.82;0.82;;;-0.60;99.90;;;;;;5032358;28;20194;-77
2024/01/10 21:40:06;;;;;;;0.65;0.65;;;-0.50;99.90;;;;;;5050141;28;20197;-78
2024/01/10 21:42:31;;;;;;;0.70;0.70;;;-0.40;99.90;;;;;;5049843;28;20760;-77
2024/01/10 21:44:57;;;;;;;0.65;0.65;;;-0.30;99.90;;;;;;5050028;28;20261;-78
2024/01/10 21:47:31;;;;;;;0.70;0.70;;;-0.40;99.90;;;;;;5049712;28;20217;-77
2024/01/10 21:49:57;;;;;;;0.70;0.70;;;-0.50;99.90;;;;;;5049832;28;20197;-77
2024/01/10 21:52:23;;;;;;;1.65;1.30;;;-0.60;99.90;;;;;;5049664;28;20259;-77
2024/01/10 21:54:49;;;;;;;0.55;0.55;;;-0.70;99.90;;;;;;5032285;28;20197;-77
2024/01/10 21:57:14;;;;;;;0.80;0.80;;;-0.80;99.90;;;;;;5032003;28;20276;-78
2024/01/10 21:59:40;;;;;;;0.68;0.68;;;-0.80;99.90;;;;;;5049667;28;20186;-77
2024/01/10 22:02:06;;;;;;;0.90;0.90;;;-0.80;99.90;;;;;;5049657;28;20693;-77
2024/01/10 22:04:33;;;;;;;0.70;0.70;;;-0.70;99.90;;;;;;5049494;28;20247;-77
2024/01/10 22:06:59;;;;;;;0.60;0.60;;;-0.80;99.90;;;;;;5031847;28;20205;-77
2024/01/10 22:09:24;;;;;;;0.60;0.60;;;-0.80;99.90;;;;;;5031614;28;20244;-78
2024/01/10 22:11:51;;;;;;;0.70;0.70;;;-0.70;99.90;;;;;;5050108;28;20678;-77
2024/01/10 22:14:16;;;;;;;0.73;0.73;;;-0.70;99.90;;;;;;5049923;28;20196;-78
2024/01/10 22:16:42;;;;;;;0.73;0.73;;;-0.70;99.90;;;;;;5038418;28;20715;-78
2024/01/10 22:19:08;;;;;;;0.80;0.80;;;-0.60;99.90;;;;;;5029785;28;20662;-78
2024/01/10 22:21:33;;;;;;;0.80;0.80;;;-0.60;99.90;;;;;;5029796;28;20281;-78
2024/01/10 22:23:59;;;;;;;0.77;0.77;;;-0.60;99.90;;;;;;5030365;28;20487;-78
2024/01/10 22:26:25;;;;;;;0.70;0.70;;;-0.70;99.90;;;;;;5030011;28;20248;-78
2024/01/10 22:28:50;;;;;;;0.70;0.70;;;-0.60;99.90;;;;;;5030498;28;20282;-77
2024/01/10 22:31:16;;;;;;;0.70;0.70;;;-0.60;99.90;;;;;;5041205;28;20486;-77
2024/01/10 22:33:43;;;;;;;0.70;0.70;;;-0.30;99.90;;;;;;5041358;28;20191;-78
2024/01/10 22:36:09;;;;;;;0.70;0.70;;;-0.10;99.90;;;;;;5036658;28;20202;-76
2024/01/10 22:38:34;;;;;;;0.70;0.70;;;0.00;99.90;;;;;;5039878;28;20204;-77
2024/01/10 22:41:00;;;;;;;0.80;0.80;;;0.10;99.90;;;;;;5058552;28;20190;-77
2024/01/10 22:43:25;;;;;;;0.70;0.70;;;0.10;99.90;;;;;;5058355;28;20213;-77
2024/01/10 22:45:52;;;;;;;0.80;0.80;;;0.20;99.90;;;;;;5058221;28;20249;-77
2024/01/10 22:48:18;;;;;;;1.00;1.00;;;0.40;99.90;;;;;;5040613;28;20186;-77
2024/01/10 22:50:46;;;;;;;0.60;0.60;;;0.50;99.90;;;;;;5058188;28;20210;-77
2024/01/10 22:53:11;;;;;;;5.60;2.13;;;0.60;99.90;;;;;;5039550;28;20229;-77
2024/01/10 22:55:37;;;;;;;0.63;0.63;;;0.60;99.90;;;;;;5056043;28;20914;-77
2024/01/10 22:58:03;;;;;;;0.70;0.70;;;0.60;99.90;;;;;;5055799;28;20182;-76
2024/01/10 23:00:28;;;;;;;0.60;0.60;;;0.60;99.90;;;;;;5042264;28;20198;-77
2024/01/10 23:02:54;;;;;;;0.60;0.60;;;0.60;99.90;;;;;;5033550;28;20249;-78
2024/01/10 23:05:23;;;;;;;0.60;0.60;;;0.60;99.90;;;;;;5033393;28;20222;-77
2024/01/10 23:07:48;;;;;;;0.80;0.80;;;0.60;99.90;;;;;;5015321;28;20244;-78
2024/01/10 23:10:14;;;;;;;0.70;0.70;;;0.60;99.90;;;;;;5048362;28;20253;-78
2024/01/10 23:12:40;;;;;;;0.50;0.50;;;0.60;99.90;;;;;;5052748;28;20206;-78
2024/01/10 23:15:05;;;;;;;0.60;0.60;;;0.80;99.90;;;;;;5053127;28;20433;-78
2024/01/10 23:17:33;;;;;;;0.80;0.80;;;0.80;99.90;;;;;;5053053;28;20229;-78
2024/01/10 23:19:59;;;;;;;0.70;0.70;;;0.80;99.90;;;;;;5052924;28;20609;-77
2024/01/10 23:22:24;;;;;;;0.70;0.70;;;0.70;99.90;;;;;;5034726;28;20228;-77
2024/01/10 23:24:50;;;;;;;0.68;0.68;;;0.70;99.90;;;;;;5053031;28;20193;-77
2024/01/10 23:27:16;;;;;;;0.70;0.70;;;0.80;99.90;;;;;;5052597;28;20197;-77